Time;durP1;ratioP1;P1;durP2;ratioP2;P2;SDS_P1;SDS_P2;PMS_P1;PMS_P2;Temp;Humidity;BMP_temperature;BMP_pressure;BME280_temperature;BME280_humidity;BME280_pressure;Samples;Min_cycle;Max_cycle;Signal;HPM_P1;HPM_P2
2022/08/25 00:01:45;;;;;;;1.70;1.60;;;;;;;22.06;100.00;101918.75;5019183;28;20450;-69
2022/08/25 00:04:12;;;;;;;3.33;2.00;;;;;;;21.88;100.00;101871.50;5018542;28;20482;-69
2022/08/25 00:06:40;;;;;;;2.70;1.80;;;;;;;22.01;100.00;101899.56;5011178;28;20998;-69
2022/08/25 00:09:07;;;;;;;2.90;1.97;;;;;;;22.05;100.00;101919.84;5018061;28;20447;-69
2022/08/25 00:11:34;;;;;;;2.63;2.00;;;;;;;21.78;100.00;101895.91;5016935;28;21109;-69
2022/08/25 00:14:04;;;;;;;1.93;1.73;;;;;;;21.91;100.00;101915.81;5018255;28;20471;-69
2022/08/25 00:16:32;;;;;;;6.50;2.07;;;;;;;21.94;100.00;101918.03;5018041;28;20950;-69
2022/08/25 00:19:01;;;;;;;2.23;1.90;;;;;;;21.87;100.00;101918.16;5019266;28;20518;-69
2022/08/25 00:21:27;;;;;;;7.47;2.27;;;;;;;21.81;100.00;101920.03;5003846;28;20431;-69
2022/08/25 00:23:53;;;;;;;2.93;2.50;;;;;;;21.70;100.00;101885.44;5018239;28;20471;-70
2022/08/25 00:26:19;;;;;;;2.00;1.80;;;;;;;21.84;100.00;101915.94;5019679;28;21015;-67
2022/08/25 00:28:45;;;;;;;2.70;2.37;;;;;;;21.94;100.00;101915.31;5017466;28;20426;-68
2022/08/25 00:31:13;;;;;;;2.00;1.80;;;;;;;21.78;100.00;101920.50;5020985;28;20450;-68
2022/08/25 00:33:39;;;;;;;6.07;2.40;;;;;;;21.30;100.00;101829.03;5017398;28;20558;-68
2022/08/25 00:36:05;;;;;;;3.30;2.60;;;;;;;21.67;100.00;101888.66;5018811;28;20531;-68
2022/08/25 00:38:30;;;;;;;4.83;2.10;;;;;;;21.91;100.00;101915.81;5020803;28;20208;-67
2022/08/25 00:41:04;;;;;;;2.30;2.07;;;;;;;21.39;100.00;101875.88;5016728;28;20220;-68
2022/08/25 00:44:10;;;;;;;2.30;2.00;;;;;;;21.79;100.00;101921.34;5018212;28;20706;-68
2022/08/25 00:46:41;;;;;;;3.07;2.27;;;;;;;21.68;100.00;101923.06;4948180;28;20458;-68
2022/08/25 00:49:12;;;;;;;2.10;1.73;;;;;;;21.62;100.00;101915.88;4951872;28;20478;-68
2022/08/25 00:51:42;;;;;;;2.80;2.37;;;;;;;21.53;100.00;101885.41;4987913;28;20538;-68
2022/08/25 00:54:12;;;;;;;5.17;2.10;;;;;;;21.54;100.00;101921.72;5018652;28;20470;-69
2022/08/25 00:56:37;;;;;;;2.80;1.97;;;;;;;21.29;100.00;101862.00;5023359;28;20439;-69
2022/08/25 00:59:04;;;;;;;3.50;2.07;;;;;;;21.51;100.00;101908.56;5020799;28;20456;-69
2022/08/25 01:01:29;;;;;;;2.43;2.23;;;;;;;20.97;100.00;101862.50;5019818;28;20188;-70
2022/08/25 01:03:55;;;;;;;6.83;2.77;;;;;;;21.57;100.00;101926.69;5017105;28;20467;-68
2022/08/25 01:06:20;;;;;;;2.43;2.23;;;;;;;21.11;100.00;101879.41;5012262;28;20654;-69
2022/08/25 01:08:46;;;;;;;2.63;2.30;;;;;;;21.62;100.00;101924.06;5018844;28;20555;-69
2022/08/25 01:11:12;;;;;;;2.67;2.47;;;;;;;21.56;100.00;101930.50;5019009;28;20656;-69
2022/08/25 01:13:49;;;;;;;3.10;2.40;;;;;;;21.50;100.00;101934.22;5017824;28;20625;-69
2022/08/25 01:16:16;;;;;;;2.53;2.33;;;;;;;21.32;100.00;101888.81;5017076;28;20800;-69
2022/08/25 01:18:49;;;;;;;3.10;2.47;;;;;;;21.58;100.00;101929.19;5018367;28;21279;-69
2022/08/25 01:21:16;;;;;;;2.90;2.47;;;;;;;21.29;100.00;101878.38;5017313;28;20431;-69
2022/08/25 01:23:42;;;;;;;2.87;2.20;;;;;;;21.38;100.00;101885.97;5017576;28;20452;-69
2022/08/25 01:26:24;;;;;;;3.57;2.00;;;;;;;21.57;100.00;101932.16;5017415;28;20501;-69
2022/08/25 01:31:35;;;;;;;3.03;2.20;;;;;;;21.43;100.00;101910.59;5015453;28;20450;-70
2022/08/25 01:34:01;;;;;;;3.00;2.63;;;;;;;21.16;100.00;101880.34;5017828;28;20463;-69
2022/08/25 01:36:28;;;;;;;2.37;2.17;;;;;;;21.27;100.00;101935.94;5017358;28;20449;-69
2022/08/25 01:38:54;;;;;;;3.83;2.57;;;;;;;21.45;100.00;101932.22;5018332;28;20331;-69
2022/08/25 01:41:35;;;;;;;3.10;2.47;;;;;;;21.12;100.00;101913.84;5016118;28;20812;-69
2022/08/25 01:44:07;;;;;;;4.40;2.20;;;;;;;20.94;100.00;101863.84;5021418;28;20215;-69
2022/08/25 01:46:33;;;;;;;3.73;2.50;;;;;;;21.42;100.00;101921.78;5018278;28;20447;-68
2022/08/25 01:49:00;;;;;;;3.93;2.30;;;;;;;21.43;100.00;101923.44;5015785;28;22358;-69
2022/08/25 01:51:29;;;;;;;4.87;2.80;;;;;;;21.08;100.00;101877.19;5015685;28;20438;-69
2022/08/25 01:53:54;;;;;;;3.40;2.40;;;;;;;21.41;100.00;101918.22;5016710;28;22271;-69
2022/08/25 01:56:20;;;;;;;5.37;2.70;;;;;;;21.10;100.00;101884.06;5018528;28;20502;-69
2022/08/25 01:58:47;;;;;;;6.10;2.63;;;;;;;21.02;100.00;101884.44;5014124;28;20262;-69
2022/08/25 02:01:17;;;;;;;3.23;2.20;;;;;;;21.02;100.00;101883.63;5016573;28;20737;-69
2022/08/25 02:03:44;;;;;;;4.27;2.47;;;;;;;21.00;100.00;101913.84;5036286;22;20505;-72
2022/08/25 02:06:11;;;;;;;5.23;2.43;;;;;;;21.25;100.00;101916.25;5036091;28;20529;-72
2022/08/25 02:08:37;;;;;;;3.83;3.00;;;;;;;21.06;100.00;101912.06;5036894;28;20868;-72
2022/08/25 02:11:03;;;;;;;3.00;2.40;;;;;;;20.52;100.00;101808.72;5036193;28;20450;-72
2022/08/25 02:13:28;;;;;;;3.97;2.47;;;;;;;20.88;100.00;101872.16;5037496;28;20207;-72
2022/08/25 02:15:57;;;;;;;3.70;2.70;;;;;;;21.10;100.00;101905.06;5034574;28;20180;-72
2022/08/25 02:18:23;;;;;;;3.40;2.83;;;;;;;21.17;100.00;101920.19;5037364;28;20568;-72
2022/08/25 02:20:48;;;;;;;4.67;2.37;;;;;;;21.02;100.00;101902.72;5035520;28;20446;-72
2022/08/25 02:23:14;;;;;;;2.90;2.60;;;;;;;20.99;100.00;101910.28;5038023;28;20457;-72
2022/08/25 02:25:43;;;;;;;3.13;2.60;;;;;;;21.05;100.00;101922.13;5035971;28;20671;-72
2022/08/25 02:28:09;;;;;;;4.10;2.90;;;;;;;20.95;100.00;101924.69;5039812;28;20487;-72
2022/08/25 02:30:36;;;;;;;6.57;3.00;;;;;;;21.01;100.00;101922.88;5037378;28;21373;-72
2022/08/25 02:33:01;;;;;;;4.50;2.77;;;;;;;21.06;100.00;101917.50;5039254;28;20469;-72
2022/08/25 02:35:27;;;;;;;4.00;2.40;;;;;;;20.89;100.00;101926.47;5041704;28;20825;-72
2022/08/25 02:37:53;;;;;;;4.33;2.50;;;;;;;20.89;100.00;101903.84;5040635;28;20656;-72
2022/08/25 02:40:20;;;;;;;4.20;3.07;;;;;;;20.80;100.00;101894.34;5040708;28;20196;-72
2022/08/25 02:42:50;;;;;;;3.23;2.73;;;;;;;20.71;100.00;101891.19;5038923;28;20218;-72
2022/08/25 02:45:16;;;;;;;3.47;2.57;;;;;;;20.52;100.00;101880.44;5040702;28;20475;-72
2022/08/25 02:47:41;;;;;;;4.90;2.87;;;;;;;20.48;100.00;101871.06;5040434;28;20447;-72
2022/08/25 02:50:07;;;;;;;4.00;2.73;;;;;;;20.67;100.00;101912.63;5039619;28;20184;-72
2022/08/25 02:52:34;;;;;;;4.30;3.10;;;;;;;20.62;100.00;101895.34;5038936;28;20532;-72
2022/08/25 02:55:03;;;;;;;3.00;2.70;;;;;;;20.66;100.00;101912.91;5038931;28;20485;-72
2022/08/25 02:57:29;;;;;;;4.13;3.10;;;;;;;20.81;100.00;101915.13;5040987;28;21007;-72
2022/08/25 02:59:54;;;;;;;3.13;2.83;;;;;;;20.71;100.00;101911.09;5039342;28;20442;-72
2022/08/25 03:02:19;;;;;;;3.17;2.87;;;;;;;20.84;100.00;101904.53;5042608;28;20431;-72
2022/08/25 03:04:46;;;;;;;3.40;3.10;;;;;;;20.72;100.00;101907.31;5035518;28;21336;-72
2022/08/25 03:07:11;;;;;;;3.90;3.27;;;;;;;20.76;100.00;101918.56;5039523;28;20218;-72
2022/08/25 03:09:37;;;;;;;3.30;2.80;;;;;;;20.84;100.00;101904.53;5041597;28;20478;-72
2022/08/25 03:12:03;;;;;;;6.23;3.63;;;;;;;20.80;100.00;101910.72;5039599;28;20203;-72
2022/08/25 03:14:29;;;;;;;4.50;3.63;;;;;;;20.48;100.00;101868.34;5040587;28;20219;-72
2022/08/25 03:16:55;;;;;;;4.17;3.77;;;;;;;20.83;100.00;101916.53;5039035;28;20439;-72
2022/08/25 03:19:20;;;;;;;3.93;3.17;;;;;;;20.67;100.00;101885.38;5040954;28;20626;-72
2022/08/25 03:21:46;;;;;;;3.87;3.30;;;;;;;20.72;100.00;101917.38;5037170;28;20446;-72
2022/08/25 03:24:11;;;;;;;5.13;4.00;;;;;;;20.67;100.00;101914.53;5039003;28;20231;-72
2022/08/25 03:26:52;;;;;;;4.07;3.10;;;;;;;20.36;100.00;101886.59;5040470;28;20188;-72
2022/08/25 03:29:20;;;;;;;5.20;3.70;;;;;;;20.15;100.00;101885.31;5041051;28;20172;-71
2022/08/25 03:31:46;;;;;;;4.07;3.20;;;;;;;20.14;100.00;101899.19;5036968;28;20977;-72
2022/08/25 03:34:15;;;;;;;3.40;3.10;;;;;;;19.91;100.00;101868.16;5041846;28;20465;-72
2022/08/25 03:36:41;;;;;;;3.87;3.47;;;;;;;20.38;100.00;101924.50;5039633;28;20464;-72
2022/08/25 03:39:07;;;;;;;3.40;2.97;;;;;;;19.93;100.00;101857.84;5041279;28;20547;-72
2022/08/25 03:41:33;;;;;;;5.23;3.23;;;;;;;20.16;100.00;101914.19;5040192;28;20198;-72
2022/08/25 03:44:02;;;;;;;5.60;3.40;;;;;;;20.43;100.00;101924.63;5039254;28;20203;-72
2022/08/25 03:46:31;;;;;;;6.67;2.87;;;;;;;20.36;100.00;101915.72;5039789;28;20445;-72
2022/08/25 03:48:57;;;;;;;7.03;3.60;;;;;;;20.40;100.00;101914.22;5037244;28;25099;-72
2022/08/25 03:51:31;;;;;;;4.13;3.57;;;;;;;20.13;100.00;101901.03;5038017;28;20446;-72
2022/08/25 03:53:58;;;;;;;3.60;3.10;;;;;;;20.30;100.00;101906.63;5038209;28;20491;-72
2022/08/25 03:56:24;;;;;;;4.10;3.63;;;;;;;20.20;100.00;101909.13;5040285;28;20446;-72
2022/08/25 03:58:50;;;;;;;3.83;3.50;;;;;;;20.43;100.00;101911.81;5038596;28;20550;-71
2022/08/25 04:01:16;;;;;;;3.67;3.37;;;;;;;20.28;100.00;101906.88;5037518;28;20768;-72
2022/08/25 04:03:41;;;;;;;4.57;3.63;;;;;;;19.59;100.00;101808.56;5039546;28;20469;-72
2022/08/25 04:06:08;;;;;;;4.47;3.90;;;;;;;20.22;100.00;101905.09;5037960;28;20472;-72
2022/08/25 04:08:34;;;;;;;4.13;3.57;;;;;;;20.25;100.00;101903.75;5042979;28;20691;-72
2022/08/25 04:11:09;;;;;;;5.57;3.83;;;;;;;20.24;100.00;101904.84;5039655;28;20450;-72
2022/08/25 04:13:35;;;;;;;5.17;3.47;;;;;;;20.22;100.00;101904.25;5037991;28;20473;-72
2022/08/25 04:16:02;;;;;;;5.60;3.97;;;;;;;20.22;100.00;101901.53;5036975;28;20435;-73
2022/08/25 04:18:29;;;;;;;3.50;3.17;;;;;;;20.21;100.00;101886.25;5039928;28;20468;-72
2022/08/25 04:21:07;;;;;;;5.10;3.40;;;;;;;20.28;100.00;101901.41;5038487;28;20821;-73
2022/08/25 04:23:33;;;;;;;5.63;4.60;;;;;;;19.60;100.00;101806.66;5039157;28;20469;-73
2022/08/25 04:25:59;;;;;;;3.97;3.40;;;;;;;20.05;100.00;101894.06;5037669;28;20442;-73
2022/08/25 04:28:24;;;;;;;5.40;4.00;;;;;;;19.72;100.00;101817.59;5039546;28;20270;-73
2022/08/25 04:30:49;;;;;;;4.90;4.30;;;;;;;20.20;100.00;101887.31;5035579;28;20746;-72
2022/08/25 04:33:15;;;;;;;4.53;4.10;;;;;;;19.81;100.00;101835.22;5037309;28;20215;-73
2022/08/25 04:35:46;;;;;;;4.47;3.97;;;;;;;20.18;100.00;101903.06;5035975;28;20192;-72
2022/08/25 04:38:11;;;;;;;4.10;3.47;;;;;;;19.75;100.00;101828.81;5037758;28;20222;-73
2022/08/25 04:40:36;;;;;;;3.83;3.30;;;;;;;20.03;100.00;101866.25;5038530;28;20908;-73
2022/08/25 04:43:02;;;;;;;4.20;3.57;;;;;;;20.33;100.00;101881.63;5036226;28;20219;-73
2022/08/25 04:45:28;;;;;;;5.73;4.27;;;;;;;20.29;100.00;101869.56;5039189;28;20574;-72
2022/08/25 04:47:53;;;;;;;4.10;3.70;;;;;;;20.21;100.00;101897.97;5048463;28;20179;-72
2022/08/25 04:50:19;;;;;;;6.20;4.10;;;;;;;20.28;100.00;101897.88;5039738;28;20649;-73
2022/08/25 04:52:45;;;;;;;3.87;3.47;;;;;;;20.21;100.00;101900.69;5038004;28;20817;-73
2022/08/25 04:55:10;;;;;;;8.90;3.67;;;;;;;20.09;100.00;101889.81;5035062;28;20192;-73
2022/08/25 04:57:36;;;;;;;6.93;4.23;;;;;;;20.11;100.00;101867.78;5040904;28;20497;-72
2022/08/25 05:00:03;;;;;;;5.50;4.17;;;;;;;20.01;100.00;101829.41;5039245;28;20569;-72
2022/08/25 05:02:28;;;;;;;4.23;3.83;;;;;;;20.34;100.00;101894.19;5041982;28;20204;-72
2022/08/25 05:04:54;;;;;;;4.87;3.67;;;;;;;20.39;100.00;101888.00;5026843;28;21057;-72
2022/08/25 05:07:19;;;;;;;4.37;3.80;;;;;;;20.22;100.00;101872.41;5031425;28;20237;-72
2022/08/25 05:09:45;;;;;;;4.53;4.13;;;;;;;20.29;100.00;101884.00;5035998;28;20192;-73
2022/08/25 05:12:10;;;;;;;4.97;4.37;;;;;;;20.21;100.00;101886.25;5037247;28;20180;-72
2022/08/25 05:14:36;;;;;;;4.40;3.80;;;;;;;20.26;100.00;101876.31;5037033;28;20208;-72
2022/08/25 05:17:01;;;;;;;4.20;3.80;;;;;;;19.90;100.00;101841.13;5041902;28;20751;-72
2022/08/25 05:19:27;;;;;;;17.13;4.20;;;;;;;20.38;100.00;101879.00;5039316;28;20180;-72
2022/08/25 05:21:53;;;;;;;5.90;4.20;;;;;;;20.13;100.00;101860.19;5035624;28;20267;-73
2022/08/25 05:24:19;;;;;;;4.57;4.17;;;;;;;20.43;100.00;101886.47;5038707;28;20238;-72
2022/08/25 05:26:44;;;;;;;5.10;4.60;;;;;;;19.57;100.00;101741.81;5040133;28;20462;-72
2022/08/25 05:29:10;;;;;;;4.43;4.00;;;;;;;19.55;100.00;101771.16;5041354;28;20467;-72
2022/08/25 05:31:36;;;;;;;5.63;4.33;;;;;;;20.45;100.00;101879.72;5038599;28;20188;-73
2022/08/25 05:34:05;;;;;;;6.63;4.47;;;;;;;20.37;100.00;101885.53;5041181;28;20577;-73
2022/08/25 05:36:31;;;;;;;5.43;4.33;;;;;;;20.23;100.00;101844.09;5031851;28;20191;-72
2022/08/25 05:38:57;;;;;;;7.37;4.80;;;;;;;20.46;100.00;101886.81;5031953;28;20459;-73
2022/08/25 05:41:27;;;;;;;6.23;4.37;;;;;;;20.40;100.00;101882.34;5036566;28;20219;-73
2022/08/25 05:43:53;;;;;;;6.40;4.40;;;;;;;20.33;100.00;101884.34;5036284;28;20298;-74
2022/08/25 05:46:20;;;;;;;4.80;4.30;;;;;;;20.20;100.00;101851.91;5038938;28;20430;-71
2022/08/25 05:48:46;;;;;;;5.60;4.70;;;;;;;20.45;100.00;101884.31;5039632;28;20426;-71
2022/08/25 05:51:13;;;;;;;4.47;3.87;;;;;;;20.03;100.00;101811.78;5037322;28;20881;-72
2022/08/25 05:53:42;;;;;;;4.37;3.90;;;;;;;20.18;100.00;101835.78;5032297;28;20442;-73
2022/08/25 05:56:08;;;;;;;6.20;4.17;;;;;;;20.30;100.00;101833.06;5041194;28;20797;-73
2022/08/25 05:58:35;;;;;;;4.80;4.40;;;;;;;20.52;100.00;101887.75;5040997;28;20470;-73
2022/08/25 06:02:39;;;;;;;5.27;4.00;;;;;;;20.51;100.00;101878.75;5040462;28;20461;-73
2022/08/25 06:03:47;;;;;;;6.70;5.00;;;;;;;20.57;100.00;101895.22;5039994;28;21143;-73
2022/08/25 06:06:13;;;;;;;6.90;4.57;;;;;;;20.31;100.00;101879.16;5037670;28;20450;-73
2022/08/25 06:08:39;;;;;;;5.50;4.80;;;;;;;20.51;100.00;101894.25;5039900;28;20187;-73
2022/08/25 06:11:06;;;;;;;5.67;4.73;;;;;;;20.66;100.00;101885.63;5039626;28;20427;-73
2022/08/25 06:13:31;;;;;;;6.37;4.47;;;;;;;20.57;100.00;101887.91;5038266;28;20459;-72
2022/08/25 06:16:00;;;;;;;8.30;5.27;;;;;;;20.56;100.00;101847.25;5036538;28;20831;-73
2022/08/25 06:18:26;;;;;;;5.47;4.53;;;;;;;20.06;100.00;101775.06;5036407;28;20211;-73
2022/08/25 06:20:51;;;;;;;5.97;4.77;;;;;;;20.70;100.00;101873.16;5032382;28;23167;-73
2022/08/25 06:23:18;;;;;;;8.30;5.30;;;;;;;20.72;100.00;101852.78;5035225;28;20458;-73
2022/08/25 06:25:49;;;;;;;6.30;5.40;;;;;;;20.39;100.00;101815.25;5035455;28;20672;-73
2022/08/25 06:28:14;;;;;;;5.43;4.87;;;;;;;20.82;100.00;101879.41;5039399;28;20425;-73
2022/08/25 06:30:39;;;;;;;5.90;5.13;;;;;;;20.88;100.00;101872.97;5038370;28;20426;-73
2022/08/25 06:33:05;;;;;;;10.43;5.23;;;;;;;20.92;100.00;101873.34;5040778;28;20204;-73
2022/08/25 06:35:30;;;;;;;6.17;5.27;;;;;;;20.63;100.00;101812.53;5039010;28;20211;-73
2022/08/25 06:37:56;;;;;;;6.17;4.97;;;;;;;21.11;100.00;101890.34;5037273;28;20203;-72
2022/08/25 06:40:21;;;;;;;7.23;5.10;;;;;;;21.17;100.00;101881.16;5036180;28;20279;-72
2022/08/25 06:42:48;;;;;;;5.87;5.20;;;;;;;20.69;100.00;101814.28;5030562;28;20640;-73
2022/08/25 06:45:13;;;;;;;5.27;4.77;;;;;;;21.31;100.00;101887.97;5033003;28;20187;-73
2022/08/25 06:47:39;;;;;;;5.37;4.67;;;;;;;20.65;100.00;101770.28;5032165;28;20438;-72
2022/08/25 06:50:05;;;;;;;5.10;4.60;;;;;;;21.39;100.00;101900.44;5032214;28;20263;-72
2022/08/25 06:52:30;;;;;;;7.30;5.50;;;;;;;20.92;100.00;101807.91;5031123;28;20257;-73
2022/08/25 06:54:56;;;;;;;6.80;4.60;;;;;;;21.54;100.00;101894.44;5035241;28;20298;-72
2022/08/25 06:57:21;;;;;;;5.63;5.03;;;;;;;21.13;100.00;101822.72;5036509;28;20535;-73
2022/08/25 06:59:48;;;;;;;7.67;5.47;;;;;;;21.53;100.00;101881.88;5036500;28;20192;-72
2022/08/25 07:02:13;;;;;;;5.80;4.90;;;;;;;21.56;100.00;101878.63;5030672;28;20202;-72
2022/08/25 07:04:39;;;;;;;5.70;5.00;;;;;;;21.39;100.00;101849.41;5038872;28;20873;-73
2022/08/25 07:07:04;;;;;;;4.97;4.50;;;;;;;21.76;100.00;101883.63;5028412;28;20185;-71
2022/08/25 07:09:30;;;;;;;4.90;4.40;;;;;;;21.77;100.00;101875.16;5040222;28;20241;-74
2022/08/25 07:11:55;;;;;;;6.90;5.50;;;;;;;21.84;100.00;101892.22;5040000;28;20183;-71
2022/08/25 07:14:21;;;;;;;5.53;5.03;;;;;;;21.40;100.00;101814.75;5039468;28;20235;-73
2022/08/25 07:16:47;;;;;;;6.77;4.80;;;;;;;21.61;100.00;101832.28;5039664;28;20202;-72
2022/08/25 07:19:13;;;;;;;6.90;5.03;;;;;;;22.05;100.00;101873.41;5042522;28;20991;-72
2022/08/25 07:21:40;;;;;;;5.87;5.30;;;;;;;22.04;100.00;101871.72;5041082;28;20442;-72
2022/08/25 07:24:09;;;;;;;5.83;5.23;;;;;;;21.87;100.00;101844.44;5045432;28;20204;-73
2022/08/25 07:26:35;;;;;;;6.27;5.67;;;;;;;22.07;100.00;101871.22;5044356;28;20431;-73
2022/08/25 07:29:05;;;;;;;5.60;4.87;;;;;;;22.03;100.00;101870.09;5043092;28;20451;-74
2022/08/25 07:31:30;;;;;;;5.80;5.10;;;;;;;22.26;100.00;101878.09;5040324;28;20805;-72
2022/08/25 07:36:41;;;;;;;5.53;4.63;;;;;;;22.45;100.00;101880.53;5034492;28;20258;-72
2022/08/25 07:39:07;;;;;;;5.60;5.10;;;;;;;22.51;100.00;101885.00;5037132;28;20465;-72
2022/08/25 07:41:38;;;;;;;5.20;4.70;;;;;;;22.58;100.00;101880.16;5034812;28;20446;-72
2022/08/25 07:44:05;;;;;;;7.33;5.20;;;;;;;22.47;100.00;101881.94;5041074;28;20484;-72
2022/08/25 07:46:32;;;;;;;5.13;4.63;;;;;;;22.51;100.00;101895.94;5042797;28;20438;-72
2022/08/25 07:48:58;;;;;;;5.63;5.00;;;;;;;22.53;100.00;101886.38;5042266;28;20423;-72
2022/08/25 07:51:23;;;;;;;5.90;4.70;;;;;;;22.31;100.00;101839.91;5043063;28;20434;-72
2022/08/25 07:53:48;;;;;;;5.50;4.80;;;;;;;22.45;100.00;101847.72;5039690;28;20212;-72
2022/08/25 07:56:15;;;;;;;5.60;4.73;;;;;;;22.47;100.00;101827.25;5043586;28;20188;-72
2022/08/25 07:58:42;;;;;;;7.97;5.33;;;;;;;22.46;100.00;101819.34;5042773;28;20239;-72
2022/08/25 08:01:13;;;;;;;5.23;4.73;;;;;;;22.83;100.00;101868.72;5043574;28;21018;-72
2022/08/25 08:03:40;;;;;;;5.20;4.70;;;;;;;22.81;100.00;101861.84;5041494;28;20531;-72
2022/08/25 08:06:14;;;;;;;6.00;5.00;;;;;;;22.90;100.00;101872.06;5043592;28;20427;-72
2022/08/25 08:08:44;;;;;;;5.70;4.70;;;;;;;22.57;100.00;101815.66;5043235;28;20468;-72
2022/08/25 08:11:26;;;;;;;9.50;5.00;;;;;;;23.01;100.00;101878.53;5041691;28;20415;-72
2022/08/25 08:13:53;;;;;;;8.03;5.33;;;;;;;23.06;100.00;101875.84;5041028;28;20453;-72
2022/08/25 08:16:20;;;;;;;8.93;4.80;;;;;;;23.02;100.00;101874.69;5041127;28;20461;-71
2022/08/25 08:18:46;;;;;;;5.57;4.80;;;;;;;23.10;100.00;101863.28;5040918;28;20466;-72
2022/08/25 08:21:30;;;;;;;4.83;4.33;;;;;;;23.20;100.00;101868.03;5042348;28;20514;-72
2022/08/25 08:23:56;;;;;;;5.50;5.00;;;;;;;23.15;100.00;101863.34;5043046;28;20540;-71
2022/08/25 08:26:22;;;;;;;6.10;4.73;;;;;;;23.32;100.00;101865.16;5043487;28;20797;-72
2022/08/25 08:28:49;;;;;;;5.13;4.43;;;;;;;22.73;100.00;101773.69;5041674;28;20422;-72
2022/08/25 08:31:18;;;;;;;4.87;4.43;;;;;;;23.41;100.00;101869.91;5040056;28;20445;-72
2022/08/25 08:33:44;;;;;;;6.03;4.90;;;;;;;23.48;100.00;101868.84;5044559;28;20977;-72
2022/08/25 08:36:11;;;;;;;4.43;4.00;;;;;;;23.39;100.00;101852.91;5042519;28;20488;-72
2022/08/25 08:38:37;;;;;;;6.83;5.13;;;;;;;23.65;100.00;101872.28;5042040;28;20465;-72
2022/08/25 08:44:34;;;;;;;5.20;4.33;;;;;;;23.81;100.00;101868.63;5039643;28;20469;-73
2022/08/25 08:47:26;;;;;;;3.80;3.50;;;;;;;23.75;100.00;101855.97;5040928;28;20431;-74
2022/08/25 08:50:04;;;;;;;4.70;4.07;;;;;;;23.74;100.00;101861.69;5040080;28;20432;-72
2022/08/25 08:52:46;;;;;;;5.40;4.13;;;;;;;22.98;100.00;101736.78;5042595;28;20911;-74
2022/08/25 08:55:20;;;;;;;4.97;4.50;;;;;;;23.54;100.00;101797.44;5043765;28;20422;-73
2022/08/25 08:57:49;;;;;;;6.23;4.03;;;;;;;23.52;100.00;101791.41;5044300;28;20474;-73
2022/08/25 09:00:16;;;;;;;5.13;3.77;;;;;;;24.06;100.00;101854.25;5040529;28;20419;-73
2022/08/25 09:02:48;;;;;;;7.33;4.40;;;;;;;24.09;100.00;101852.88;5037808;28;20426;-73
2022/08/25 09:05:18;;;;;;;4.73;4.10;;;;;;;23.84;100.00;101815.22;5039681;28;20937;-73
2022/08/25 09:07:49;;;;;;;5.63;4.10;;;;;;;24.09;100.00;101850.97;5036262;28;20650;-73
2022/08/25 09:10:18;;;;;;;6.03;4.63;;;;;;;24.17;100.00;101846.09;5041791;28;20533;-73
2022/08/25 09:12:46;;;;;;;4.27;3.23;;;;;;;24.27;100.00;101841.50;5039506;28;20451;-73
2022/08/25 09:16:53;;;;;;;4.63;4.23;;;;;;;24.21;100.00;101822.53;5040950;28;20465;-73
2022/08/25 09:18:26;;;;;;;4.27;3.87;;;;;;;24.38;100.00;101827.81;5039973;28;20466;-73
2022/08/25 09:21:04;;;;;;;5.43;3.80;;;;;;;24.36;100.00;101828.94;5028601;28;20434;-73
2022/08/25 09:23:46;;;;;;;4.70;3.93;;;;;;;24.06;100.00;101743.81;5031843;28;20453;-73
2022/08/25 09:26:32;;;;;;;4.17;3.70;;;;;;;24.49;100.00;101822.13;5036106;28;20513;-73
2022/08/25 09:29:06;;;;;;;4.23;3.93;;;;;;;24.40;100.00;101796.31;5041916;28;20426;-73
2022/08/25 09:31:34;;;;;;;4.30;3.90;;;;;;;24.68;100.00;101825.22;5039860;28;20564;-74
2022/08/25 09:34:02;;;;;;;6.90;3.90;;;;;;;24.55;100.00;101785.41;5040352;28;20588;-74
2022/08/25 09:36:28;;;;;;;4.40;4.00;;;;;;;24.21;100.00;101741.13;5040246;28;20434;-73
2022/08/25 09:38:54;;;;;;;4.73;4.07;;;;;;;24.46;100.00;101756.03;5038837;28;20459;-73
2022/08/25 09:41:34;;;;;;;4.17;3.70;;;;;;;24.70;100.00;101776.38;5034757;28;20964;-74
2022/08/25 09:43:59;;;;;;;3.93;3.50;;;;;;;24.94;100.00;101795.94;5041459;28;20205;-74
2022/08/25 09:46:28;;;;;;;4.07;3.73;;;;;;;24.99;100.00;101787.69;5038242;28;20743;-72
2022/08/25 09:49:09;;;;;;;5.07;3.43;;;;;;;24.95;100.00;101783.84;5038960;28;20318;-73
2022/08/25 09:51:38;;;;;;;4.80;4.40;;;;;;;24.97;100.00;101776.19;5038393;28;20462;-73
2022/08/25 09:54:14;;;;;;;4.20;3.80;;;;;;;25.03;100.00;101777.00;5041619;28;20454;-74
2022/08/25 09:57:00;;;;;;;4.57;3.73;;;;;;;25.13;100.00;101771.50;5037931;28;20440;-74
2022/08/25 09:59:28;;;;;;;5.27;3.87;;;;;;;25.01;100.00;101765.47;5041127;28;20446;-74
2022/08/25 10:01:57;;;;;;;6.17;3.90;;;;;;;25.08;100.00;101755.03;5040397;28;20513;-74
2022/08/25 10:04:35;;;;;;;3.90;3.60;;;;;;;25.16;100.00;101759.19;5041138;28;20453;-73
2022/08/25 10:07:06;;;;;;;4.40;4.00;;;;;;;25.19;100.00;101748.47;5038727;28;20425;-73
2022/08/25 10:09:41;;;;;;;4.10;3.70;;;;;;;25.32;100.00;101752.59;5039442;28;20473;-73
2022/08/25 10:12:20;;;;;;;4.50;4.10;;;;;;;25.05;100.00;101692.44;5038818;28;20426;-74
2022/08/25 10:14:47;;;;;;;3.73;3.40;;;;;;;25.36;100.00;101726.22;5038643;28;20446;-74
2022/08/25 10:17:26;;;;;;;4.97;4.30;;;;;;;25.45;100.00;101693.53;5038896;28;20454;-74
2022/08/25 10:19:54;;;;;;;4.20;3.53;;;;;;;25.58;100.00;101731.41;5040506;28;20787;-73
2022/08/25 10:22:30;;;;;;;4.17;3.77;;;;;;;25.66;100.00;101725.34;5040550;28;20437;-73
2022/08/25 10:24:56;;;;;;;9.73;4.00;;;;;;;25.76;100.00;101726.41;5040105;28;20752;-73
2022/08/25 10:27:52;;;;;;;4.50;3.83;;;;;;;25.68;100.00;101695.66;5039569;28;20564;-73
2022/08/25 10:30:24;;;;;;;4.20;3.30;;;;;;;25.95;100.00;101715.66;5040830;28;20185;-74
2022/08/25 10:33:21;;;;;;;3.60;3.30;;;;;;;25.93;100.00;101707.72;5039401;28;20432;-74
2022/08/25 10:36:15;;;;;;;4.60;4.10;;;;;;;25.85;100.00;101697.28;5039796;28;20509;-74
2022/08/25 10:38:56;;;;;;;3.63;3.23;;;;;;;25.96;100.00;101707.13;5041616;28;20995;-74
2022/08/25 10:41:40;;;;;;;3.23;2.60;;;;;;;26.03;100.00;101707.66;5039917;28;20418;-73
2022/08/25 10:47:32;;;;;;;3.77;3.03;;;;;;;26.07;100.00;101697.75;5039982;28;20425;-73
2022/08/25 10:50:08;;;;;;;3.37;2.80;;;;;;;26.25;100.00;101692.69;5041392;28;20483;-74
2022/08/25 10:52:59;;;;;;;3.77;3.37;;;;;;;26.34;100.00;101691.00;5043057;28;20472;-74
2022/08/25 10:55:36;;;;;;;2.63;2.40;;;;;;;26.32;100.00;101680.25;5040127;28;20533;-74
2022/08/25 10:58:07;;;;;;;3.13;2.83;;;;;;;26.29;100.00;101674.53;5037007;28;20458;-74
2022/08/25 11:00:51;;;;;;;3.10;2.73;;;;;;;26.31;100.00;101653.06;5037912;28;20912;-74
2022/08/25 11:03:43;;;;;;;5.50;2.83;;;;;;;26.31;100.00;101656.63;5040009;28;21220;-74
2022/08/25 11:06:25;;;;;;;3.17;2.90;;;;;;;26.39;100.00;101655.22;5037279;28;20809;-74
2022/08/25 11:08:56;;;;;;;3.50;3.00;;;;;;;26.43;100.00;101655.47;5037850;28;20436;-75
2022/08/25 11:11:29;;;;;;;5.07;2.80;;;;;;;26.36;100.00;101609.84;5038250;28;20940;-74
2022/08/25 11:14:02;;;;;;;6.87;3.13;;;;;;;26.62;100.00;101642.69;5039536;28;20451;-74
2022/08/25 11:17:03;;;;;;;4.53;2.97;;;;;;;26.83;100.00;101638.66;5036409;28;20432;-74
2022/08/25 11:19:38;;;;;;;4.67;2.57;;;;;;;26.66;100.00;101629.19;5024343;28;20477;-71
2022/08/25 11:22:24;;;;;;;3.83;2.63;;;;;;;26.66;100.00;101643.75;5043611;28;20489;-72
2022/08/25 11:24:54;;;;;;;2.90;2.70;;;;;;;26.65;100.00;101636.63;5044937;28;20441;-72
2022/08/25 11:27:22;;;;;;;2.73;2.53;;;;;;;26.76;100.00;101634.56;5045154;28;20434;-72
2022/08/25 11:29:58;;;;;;;3.33;2.90;;;;;;;26.90;100.00;101635.56;5044196;28;20428;-72
2022/08/25 11:32:46;;;;;;;4.40;3.00;;;;;;;26.97;100.00;101629.72;5042398;28;20425;-72
2022/08/25 11:35:15;;;;;;;4.23;2.90;;;;;;;26.90;100.00;101612.72;5042657;28;20433;-72
2022/08/25 11:38:21;;;;;;;4.33;2.83;;;;;;;27.11;100.00;101632.59;5040649;28;20455;-72
2022/08/25 11:41:05;;;;;;;2.90;2.70;;;;;;;27.06;100.00;101630.72;5042994;28;20422;-73